createdAt,value
2022-11-05T00:02:07.262Z,99703.60
2022-11-05T00:04:56.048Z,99703.00
2022-11-05T00:07:48.958Z,99687.80
2022-11-05T00:10:22.675Z,99696.00
2022-11-05T00:13:11.407Z,99701.40
2022-11-05T00:15:59.652Z,99702.00
2022-11-05T00:18:29.607Z,99709.40
2022-11-05T00:20:59.536Z,99705.20
2022-11-05T00:23:47.922Z,99701.40
2022-11-05T00:26:17.754Z,99707.00
2022-11-05T00:28:48.009Z,99705.20
2022-11-05T00:31:18.127Z,99709.40
2022-11-05T00:33:48.097Z,99707.40
2022-11-05T00:36:17.990Z,99706.20
2022-11-05T00:38:47.825Z,99694.80
2022-11-05T00:41:17.443Z,99687.00
2022-11-05T00:44:08.636Z,99682.80
2022-11-05T00:46:38.441Z,99682.60
2022-11-05T00:49:27.005Z,99678.80
2022-11-05T00:52:17.343Z,99680.20
2022-11-05T00:54:53.354Z,99672.40
2022-11-05T00:57:23.504Z,99679.40
2022-11-05T00:59:53.468Z,99679.80
2022-11-05T01:02:23.563Z,99677.20
2022-11-05T01:04:55.900Z,99673.40
2022-11-05T01:07:25.761Z,99668.80
2022-11-05T01:09:55.483Z,99669.60
2022-11-05T01:12:25.225Z,99667.40
2022-11-05T01:14:55.196Z,99679.60
2022-11-05T01:17:25.177Z,99685.00
2022-11-05T01:19:57.455Z,99682.60
2022-11-05T01:22:27.563Z,99688.60
2022-11-05T01:24:57.429Z,99696.80
2022-11-05T01:27:27.258Z,99694.20
2022-11-05T01:29:57.132Z,99698.80
2022-11-05T01:32:26.938Z,99692.60
2022-11-05T01:34:56.712Z,99692.60
2022-11-05T01:37:30.171Z,99696.80
2022-11-05T01:40:12.666Z,99698.40
2022-11-05T01:42:42.399Z,99706.00
2022-11-05T01:45:19.993Z,99709.60
2022-11-05T01:48:04.778Z,99726.00
2022-11-05T01:50:42.571Z,99720.20
2022-11-05T01:53:21.511Z,99714.20
2022-11-05T01:55:57.289Z,99702.00
2022-11-05T01:58:33.754Z,99718.80
2022-11-05T02:01:06.246Z,99719.80
2022-11-05T02:03:42.441Z,99722.20
2022-11-05T02:06:13.808Z,99722.00
2022-11-05T02:08:54.294Z,99726.60
2022-11-05T02:11:24.032Z,99720.40
2022-11-05T02:13:56.208Z,99722.00
2022-11-05T02:16:37.003Z,99710.00
2022-11-05T02:19:25.348Z,99708.80
2022-11-05T02:22:52.901Z,99710.80
2022-11-05T02:25:35.647Z,99717.00
2022-11-05T02:28:32.625Z,99709.20
2022-11-05T02:31:03.679Z,99713.00
2022-11-05T02:33:39.762Z,99717.00
2022-11-05T02:36:27.244Z,99722.80
2022-11-05T02:39:07.068Z,99718.80
2022-11-05T02:41:42.999Z,99725.80
2022-11-05T02:44:22.063Z,99726.60
2022-11-05T02:46:56.907Z,99735.60
2022-11-05T02:49:35.209Z,99735.60
2022-11-05T02:52:06.867Z,99748.00
2022-11-05T02:54:38.669Z,99744.80
2022-11-05T02:57:08.374Z,99745.80
2022-11-05T02:59:38.083Z,99752.20
2022-11-05T03:02:07.980Z,99745.40
2022-11-05T03:04:37.984Z,99743.80
2022-11-05T03:07:22.487Z,99744.80
2022-11-05T03:10:35.799Z,99745.00
2022-11-05T03:13:14.386Z,99743.40
2022-11-05T03:15:57.770Z,99742.80
2022-11-05T03:18:32.059Z,99750.60
2022-11-05T03:21:04.983Z,99759.80
2022-11-05T03:23:37.975Z,99768.80
2022-11-05T03:26:10.712Z,99768.00
2022-11-05T03:28:42.528Z,99774.60
2022-11-05T03:31:12.747Z,99773.60
2022-11-05T03:33:42.606Z,99769.60
2022-11-05T03:36:16.764Z,99773.60
2022-11-05T03:39:41.156Z,99770.00
2022-11-05T03:42:19.118Z,99771.20
2022-11-05T03:44:54.906Z,99769.80
2022-11-05T03:47:30.491Z,99774.60
2022-11-05T03:50:13.314Z,99777.80
2022-11-05T03:52:50.335Z,99775.20
2022-11-05T03:55:21.247Z,99780.60
2022-11-05T03:57:51.021Z,99783.00
2022-11-05T04:00:20.881Z,99783.60
2022-11-05T04:02:59.687Z,99774.60
2022-11-05T04:05:43.962Z,99784.20
2022-11-05T04:08:37.639Z,99791.20
2022-11-05T04:11:30.938Z,99792.80
2022-11-05T04:14:01.317Z,99793.80
2022-11-05T04:16:49.668Z,99808.00
2022-11-05T04:19:40.384Z,99818.40
2022-11-05T04:22:32.903Z,99815.80
2022-11-05T04:25:14.910Z,99828.80
2022-11-05T04:27:48.698Z,99834.00
2022-11-05T04:30:19.917Z,99839.20
2022-11-05T04:33:18.909Z,99829.80
2022-11-05T04:40:12.924Z,99839.60
2022-11-05T04:43:16.616Z,99838.60
2022-11-05T04:46:18.572Z,99847.00
2022-11-05T04:49:24.986Z,99849.80
2022-11-05T04:52:17.867Z,99856.40
2022-11-05T04:56:03.388Z,99853.60
2022-11-05T04:59:11.122Z,99863.00
2022-11-05T05:01:41.250Z,99861.20
2022-11-05T05:04:11.156Z,99854.60
2022-11-05T05:06:43.670Z,99850.00
2022-11-05T05:09:18.805Z,99848.20
2022-11-05T05:11:50.788Z,99845.60
2022-11-05T05:14:23.390Z,99849.20
2022-11-05T05:17:12.582Z,99840.80
2022-11-05T05:20:18.470Z,99864.80
2022-11-05T05:23:31.823Z,99863.00
2022-11-05T05:26:03.711Z,99870.00
2022-11-05T05:29:11.670Z,99864.60
2022-11-05T05:31:53.796Z,99878.40
2022-11-05T07:29:34.350Z,99963.20
2022-11-05T10:01:40.489Z,100125.20
2022-11-05T10:04:52.112Z,100127.40
2022-11-05T10:08:21.887Z,100128.00
2022-11-05T10:11:28.321Z,100142.20
2022-11-05T10:15:05.500Z,100150.60
2022-11-05T10:18:09.189Z,100152.80
2022-11-05T10:20:44.837Z,100147.80
2022-11-05T10:23:45.386Z,100152.40
2022-11-05T10:27:11.336Z,100152.00
2022-11-05T10:30:12.359Z,100155.60
2022-11-05T10:33:08.649Z,100170.40
2022-11-05T10:35:52.323Z,100173.40
2022-11-05T10:38:27.963Z,100174.60
2022-11-05T10:41:25.883Z,100170.40
2022-11-05T10:44:18.678Z,100175.00
2022-11-05T10:47:19.379Z,100167.80
2022-11-05T10:50:20.176Z,100168.20
2022-11-05T10:53:06.194Z,100162.40
2022-11-05T10:55:39.195Z,100162.60
2022-11-05T10:58:23.537Z,100162.00
2022-11-05T11:01:25.374Z,100162.20
2022-11-05T11:04:34.876Z,100172.20
2022-11-05T11:08:44.556Z,100179.40
2022-11-05T13:13:29.464Z,100241.20
2022-11-05T13:16:29.008Z,100237.40
2022-11-05T13:19:05.884Z,100243.00
2022-11-05T13:21:36.168Z,100238.00
2022-11-05T13:24:13.096Z,100250.40
2022-11-05T13:26:48.755Z,100248.40
2022-11-05T13:29:21.325Z,100263.40
2022-11-05T13:31:53.735Z,100265.00
2022-11-05T13:34:23.854Z,100275.20
2022-11-05T13:37:16.022Z,100270.00
2022-11-05T13:39:50.994Z,100274.60
2022-11-05T13:43:11.831Z,100271.80
2022-11-05T13:46:09.761Z,100281.60
2022-11-05T13:49:19.007Z,100285.40
2022-11-05T13:51:54.024Z,100294.60
2022-11-05T13:55:07.561Z,100294.40
2022-11-05T13:58:23.603Z,100292.00
2022-11-05T14:01:06.099Z,100290.80
2022-11-05T14:03:38.810Z,100296.80
2022-11-05T14:06:10.393Z,100298.40
2022-11-05T14:08:42.979Z,100311.00
2022-11-05T14:11:22.548Z,100316.00
2022-11-05T14:13:56.556Z,100313.00
2022-11-05T14:16:29.153Z,100321.20
2022-11-05T14:19:35.640Z,100325.20
2022-11-05T14:22:40.922Z,100329.20
2022-11-05T14:26:12.529Z,100330.20
2022-11-05T14:29:07.839Z,100329.20
2022-11-05T14:32:08.206Z,100331.20
2022-11-05T14:34:54.542Z,100335.00
2022-11-05T14:37:39.104Z,100335.20
2022-11-05T14:40:36.595Z,100345.60
2022-11-05T14:43:16.302Z,100346.40
2022-11-05T14:45:56.088Z,100357.20
2022-11-05T14:48:35.658Z,100349.20
2022-11-05T14:51:20.520Z,100348.20
2022-11-05T14:53:50.356Z,100346.20
2022-11-05T14:56:20.310Z,100352.40
2022-11-05T14:58:50.005Z,100350.60
2022-11-05T15:01:55.485Z,100356.40
2022-11-05T15:04:30.026Z,100357.40
2022-11-05T15:07:37.221Z,100361.40
2022-11-05T15:10:12.001Z,100352.60
2022-11-05T15:12:45.968Z,100361.40
2022-11-05T15:15:24.753Z,100363.40
2022-11-05T15:18:02.022Z,100365.00
2022-11-05T15:20:40.135Z,100371.00
2022-11-05T15:23:14.542Z,100376.00
2022-11-05T15:25:52.934Z,100379.80
2022-11-05T15:28:30.524Z,100380.00
2022-11-05T15:31:02.790Z,100379.40
2022-11-05T15:33:32.771Z,100381.60
2022-11-05T15:36:17.955Z,100386.40
2022-11-05T15:39:08.217Z,100384.60
2022-11-05T15:41:37.876Z,100388.60
2022-11-05T15:44:30.282Z,100389.00
2022-11-05T15:47:24.651Z,100392.20
2022-11-05T15:49:55.799Z,100396.20
2022-11-05T15:52:31.497Z,100402.60
2022-11-05T15:55:19.746Z,100396.20
2022-11-05T15:57:51.529Z,100392.20
2022-11-05T16:00:23.940Z,100402.20
2022-11-05T16:02:56.935Z,100394.80
2022-11-05T16:05:28.178Z,100407.60
2022-11-05T16:07:59.396Z,100409.80
2022-11-05T16:10:31.657Z,100404.00
2022-11-05T16:13:34.913Z,100411.80
2022-11-05T16:16:25.261Z,100415.40
2022-11-05T16:18:54.704Z,100417.80
2022-11-05T16:21:27.743Z,100418.40
2022-11-05T16:23:58.981Z,100416.40
2022-11-05T16:27:01.110Z,100415.60
2022-11-05T16:29:30.402Z,100419.60
2022-11-05T16:32:01.192Z,100427.80
2022-11-05T16:34:36.082Z,100438.60
2022-11-05T16:37:06.281Z,100441.20
2022-11-05T16:39:35.765Z,100448.80
2022-11-05T16:42:13.787Z,100449.20
2022-11-05T16:44:43.507Z,100461.20
2022-11-05T16:47:13.049Z,100459.20
2022-11-05T16:49:42.907Z,100461.60
2022-11-05T16:52:13.369Z,100468.80
2022-11-05T16:54:43.384Z,100473.60
2022-11-05T16:57:18.993Z,100466.20
2022-11-05T16:59:50.371Z,100470.20
2022-11-05T17:02:20.560Z,100474.60
2022-11-05T17:04:50.599Z,100477.60
2022-11-05T17:07:20.220Z,100478.60
2022-11-05T17:09:50.018Z,100485.40
2022-11-05T17:12:19.993Z,100494.40
2022-11-05T17:14:50.418Z,100494.80
2022-11-05T17:17:20.612Z,100494.80
2022-11-05T17:19:51.677Z,100502.40
2022-11-05T17:22:23.417Z,100502.40
2022-11-05T17:24:52.963Z,100508.00
2022-11-05T17:27:22.463Z,100510.40
2022-11-05T17:29:51.921Z,100513.40
2022-11-05T17:32:21.458Z,100512.40
2022-11-05T17:34:52.058Z,100511.20
2022-11-05T17:37:21.406Z,100526.00
2022-11-05T17:39:50.905Z,100525.20
2022-11-05T17:42:20.401Z,100532.20
2022-11-05T17:44:49.987Z,100535.60
2022-11-05T17:47:19.702Z,100534.60
2022-11-05T17:49:49.236Z,100536.60
2022-11-05T17:52:19.474Z,100525.00
2022-11-05T17:54:49.244Z,100525.20
2022-11-05T17:57:19.004Z,100530.40
2022-11-05T17:59:48.683Z,100545.20
2022-11-05T18:02:18.503Z,100547.60
2022-11-05T18:04:48.181Z,100542.40
2022-11-05T18:07:17.842Z,100548.60
2022-11-05T18:09:47.433Z,100549.00
2022-11-05T18:12:16.923Z,100545.80
2022-11-05T18:14:46.399Z,100545.00
2022-11-05T18:17:16.101Z,100546.20
2022-11-05T18:19:45.718Z,100549.20
2022-11-05T18:22:17.990Z,100554.40
2022-11-05T18:24:48.519Z,100549.80
2022-11-05T18:27:18.624Z,100548.80
2022-11-05T18:29:49.206Z,100554.60
2022-11-05T18:32:18.992Z,100553.60
2022-11-05T18:34:48.700Z,100552.40
2022-11-05T18:37:18.594Z,100559.60
2022-11-05T18:39:51.297Z,100554.20
2022-11-05T18:42:21.483Z,100559.60
2022-11-05T18:44:51.157Z,100556.60
2022-11-05T18:47:21.055Z,100554.20
2022-11-05T18:49:51.624Z,100553.20
2022-11-05T18:52:21.633Z,100559.00
2022-11-05T18:54:51.496Z,100566.20
2022-11-05T18:57:21.364Z,100571.60
2022-11-05T18:59:51.279Z,100570.80
2022-11-05T19:02:21.304Z,100573.80
2022-11-05T19:05:21.997Z,100580.80
2022-11-05T19:07:40.852Z,100585.60
2022-11-05T19:10:10.928Z,100589.40
2022-11-05T19:12:41.240Z,100588.20
2022-11-05T19:15:12.801Z,100577.00
2022-11-05T19:17:42.211Z,100584.00
2022-11-05T19:20:13.625Z,100593.20
2022-11-05T19:22:43.125Z,100584.20
2022-11-05T19:25:12.802Z,100589.40
2022-11-05T19:27:43.298Z,100584.60
2022-11-05T19:30:13.843Z,100595.00
2022-11-05T19:32:43.967Z,100607.20
2022-11-05T19:35:13.349Z,100602.20
2022-11-05T19:37:42.841Z,100604.40
2022-11-05T19:40:13.805Z,100606.60
2022-11-05T19:42:43.499Z,100613.20
2022-11-05T19:48:03.299Z,100615.40
2022-11-05T19:50:32.975Z,100619.40
2022-11-05T19:53:05.539Z,100626.40
2022-11-05T19:55:35.406Z,100630.60
2022-11-05T19:58:04.849Z,100627.20
2022-11-05T20:00:34.538Z,100632.80
2022-11-05T20:03:04.469Z,100628.40
2022-11-05T20:05:34.752Z,100634.40
2022-11-05T20:08:05.188Z,100635.60
2022-11-05T20:10:37.011Z,100640.00
2022-11-05T20:13:06.765Z,100645.20
2022-11-05T20:15:39.610Z,100644.20
2022-11-05T20:18:09.269Z,100644.60
2022-11-05T20:20:39.507Z,100652.40
2022-11-05T20:23:09.092Z,100653.20
2022-11-05T20:25:38.618Z,100652.20
2022-11-05T20:28:08.408Z,100650.40
2022-11-05T20:30:39.389Z,100662.40
2022-11-05T20:33:09.051Z,100660.60
2022-11-05T20:35:40.364Z,100657.80
2022-11-05T20:38:10.167Z,100666.80
2022-11-05T20:40:41.715Z,100666.20
2022-11-05T20:43:11.124Z,100668.60
2022-11-05T20:45:40.732Z,100659.20
2022-11-05T20:48:10.734Z,100674.00
2022-11-05T20:50:43.033Z,100672.20
2022-11-05T20:53:13.098Z,100668.60
2022-11-05T20:55:44.212Z,100671.00
2022-11-05T20:58:14.773Z,100669.00
2022-11-05T21:00:50.891Z,100671.60
2022-11-05T21:03:20.710Z,100671.40
2022-11-05T21:05:55.870Z,100668.20
2022-11-05T21:08:25.638Z,100673.40
2022-11-05T21:10:55.579Z,100679.40
2022-11-05T21:13:25.082Z,100681.60
2022-11-05T21:15:59.790Z,100683.80
2022-11-05T21:18:30.812Z,100684.80
2022-11-05T21:21:00.556Z,100683.20
2022-11-05T21:23:30.076Z,100680.80
2022-11-05T21:25:59.950Z,100680.00
2022-11-05T21:28:29.517Z,100686.80
2022-11-05T21:31:02.264Z,100692.80
2022-11-05T21:33:32.816Z,100699.60
2022-11-05T21:36:09.662Z,100692.60
2022-11-05T21:38:39.257Z,100690.00
2022-11-05T21:41:10.437Z,100694.20
2022-11-05T21:43:41.936Z,100694.40
2022-11-05T21:46:11.644Z,100700.00
2022-11-05T21:48:41.468Z,100689.00
2022-11-05T21:51:30.799Z,100686.60
2022-11-05T21:54:19.115Z,100693.00
2022-11-05T21:57:10.851Z,100685.40
2022-11-05T21:59:51.460Z,100682.60
2022-11-05T22:02:23.350Z,100690.00
2022-11-05T22:04:54.329Z,100688.00
2022-11-05T22:07:26.610Z,100688.40
2022-11-05T22:09:56.092Z,100693.60
2022-11-05T22:12:25.614Z,100689.80
2022-11-05T22:14:55.749Z,100688.20
2022-11-05T22:17:26.182Z,100683.40
2022-11-05T22:19:56.304Z,100689.80
2022-11-05T22:22:26.883Z,100697.60
2022-11-05T22:24:57.132Z,100701.80
2022-11-05T22:27:26.735Z,100705.00
2022-11-05T22:29:56.436Z,100708.40
2022-11-05T22:32:25.829Z,100719.00
2022-11-05T22:34:55.376Z,100723.00
2022-11-05T22:37:25.451Z,100721.00
2022-11-05T22:39:55.249Z,100719.00
2022-11-05T22:42:25.349Z,100718.60
2022-11-05T22:44:54.963Z,100721.40
2022-11-05T22:47:24.680Z,100719.80
2022-11-05T22:49:55.106Z,100716.80
2022-11-05T22:52:25.482Z,100722.00
2022-11-05T22:54:55.069Z,100718.20
2022-11-05T22:57:24.618Z,100715.20
2022-11-05T22:59:55.272Z,100708.80
2022-11-05T23:02:25.034Z,100712.20
2022-11-05T23:04:54.964Z,100710.80
2022-11-05T23:07:42.814Z,100723.60
2022-11-05T23:10:30.785Z,100722.20
2022-11-05T23:13:00.669Z,100724.60
2022-11-05T23:15:48.744Z,100717.60
2022-11-05T23:18:36.862Z,100718.40
2022-11-05T23:21:25.647Z,100711.80
2022-11-05T23:24:04.528Z,100721.40
2022-11-05T23:26:51.657Z,100722.80
2022-11-05T23:29:22.694Z,100717.80
2022-11-05T23:32:10.447Z,100727.00
2022-11-05T23:34:39.937Z,100716.60
2022-11-05T23:37:27.963Z,100728.20
2022-11-05T23:39:57.462Z,100722.40
2022-11-05T23:42:45.827Z,100716.00
2022-11-05T23:45:33.844Z,100713.80
2022-11-05T23:48:18.193Z,100718.80
2022-11-05T23:50:51.145Z,100713.00
2022-11-05T23:53:21.140Z,100719.40
2022-11-05T23:55:50.701Z,100718.60
2022-11-05T23:58:20.042Z,100725.80
